Time;durP1;ratioP1;P1;durP2;ratioP2;P2;SDS_P1;SDS_P2;PMS_P1;PMS_P2;Temp;Humidity;BMP_temperature;BMP_pressure;BME280_temperature;BME280_humidity;BME280_pressure;Samples;Min_cycle;Max_cycle;Signal;HPM_P1;HPM_P2
2023/02/27 00:00:23;;;;;;;14.38;5.45;;;;;;;0.07;67.54;98933.97;4972117;28;20027;-86
2023/02/27 00:02:50;;;;;;;12.80;6.53;;;;;;;0.05;68.15;98930.66;4974486;28;20035;-85
2023/02/27 00:05:16;;;;;;;14.80;5.28;;;;;;;0.03;67.54;98927.34;4974124;28;20077;-86
2023/02/27 00:07:41;;;;;;;11.77;5.20;;;;;;;0.00;67.75;98925.13;4972499;28;20039;-87
2023/02/27 00:10:08;;;;;;;14.60;5.13;;;;;;;-0.04;67.93;98930.09;4972854;28;20472;-86
2023/02/27 00:12:37;;;;;;;11.95;5.13;;;;;;;-0.06;67.88;98932.19;4974189;28;20439;-86
2023/02/27 00:15:08;;;;;;;13.60;5.07;;;;;;;-0.04;67.93;98940.06;4972797;28;20037;-87
2023/02/27 00:17:35;;;;;;;10.07;4.82;;;;;;;-0.06;67.84;98945.66;4971652;28;20030;-87
2023/02/27 00:20:03;;;;;;;12.25;4.35;;;;;;;-0.09;67.78;98940.69;4973235;28;20518;-87
2023/02/27 00:22:28;;;;;;;11.27;5.18;;;;;;;-0.10;67.16;98949.00;4973773;28;20089;-86
2023/02/27 00:24:54;;;;;;;11.18;4.85;;;;;;;-0.12;67.54;98949.22;4973749;28;20046;-89
2023/02/27 00:27:19;;;;;;;9.60;4.00;;;;;;;-0.13;67.50;98954.84;4988891;28;20029;-89
2023/02/27 00:29:44;;;;;;;9.50;4.53;;;;;;;-0.13;67.94;98944.84;4973374;28;20031;-90
2023/02/27 00:32:10;;;;;;;11.45;4.55;;;;;;;-0.15;67.66;98944.25;4973861;28;20035;-85
2023/02/27 00:34:35;;;;;;;10.88;4.45;;;;;;;-0.14;67.47;98947.78;4973573;28;20114;-88
2023/02/27 00:37:00;;;;;;;7.85;4.15;;;;;;;-0.16;67.58;98943.44;4973175;28;20731;-87
2023/02/27 00:39:26;;;;;;;9.25;4.28;;;;;;;-0.13;67.50;98957.53;4972828;28;20436;-92
2023/02/27 00:41:51;;;;;;;8.98;4.20;;;;;;;-0.14;67.59;98947.78;4973879;28;20107;-92
2023/02/27 00:44:16;;;;;;;7.45;3.72;;;;;;;-0.17;67.25;98947.16;4973462;28;20062;-92
2023/02/27 00:46:43;;;;;;;12.60;4.30;;;;;;;-0.16;67.90;98948.81;4971972;28;20383;-91
2023/02/27 00:49:09;;;;;;;10.30;3.95;;;;;;;-0.17;67.63;98943.63;4972701;28;20019;-92
2023/02/27 00:51:34;;;;;;;9.20;4.38;;;;;;;-0.21;67.27;98943.25;4973386;28;20029;-92
2023/02/27 00:53:59;;;;;;;8.75;4.18;;;;;;;-0.24;67.49;98945.56;4973494;28;20500;-92
2023/02/27 00:56:25;;;;;;;8.63;4.47;;;;;;;-0.27;67.55;98937.88;4973458;28;20035;-90
2023/02/27 00:58:50;;;;;;;7.65;4.32;;;;;;;-0.33;67.62;98944.94;4971593;28;20042;-91
2023/02/27 01:01:15;;;;;;;8.90;4.28;;;;;;;-0.35;67.04;98939.78;4973317;28;20377;-91
2023/02/27 01:03:41;;;;;;;10.75;4.28;;;;;;;-0.35;67.42;98941.63;4974155;28;20023;-90
2023/02/27 01:06:07;;;;;;;8.65;4.38;;;;;;;-0.37;67.58;98949.09;4974142;28;20617;-90
2023/02/27 01:08:32;;;;;;;11.32;4.63;;;;;;;-0.38;67.40;98942.91;4973070;28;20065;-89
2023/02/27 01:10:58;;;;;;;8.55;3.72;;;;;;;-0.38;67.42;98945.59;4972713;28;20027;-90
2023/02/27 01:13:23;;;;;;;7.57;3.53;;;;;;;-0.37;67.47;98949.94;4973299;28;20023;-90
2023/02/27 01:15:49;;;;;;;8.32;3.90;;;;;;;-0.33;66.97;98953.88;4973292;28;20050;-90
2023/02/27 01:18:14;;;;;;;10.15;4.07;;;;;;;-0.32;67.27;98949.28;4972361;28;20109;-93
2023/02/27 01:20:40;;;;;;;9.63;4.25;;;;;;;-0.27;67.36;98951.38;4973928;28;20094;-93
2023/02/27 01:23:05;;;;;;;8.05;3.78;;;;;;;-0.27;67.47;98952.19;4974092;28;20023;-92
2023/02/27 01:25:31;;;;;;;7.88;3.03;;;;;;;-0.23;67.65;98960.69;4973470;28;20550;-92
2023/02/27 01:27:56;;;;;;;10.05;4.00;;;;;;;-0.21;67.12;98964.81;4973253;28;20026;-92
2023/02/27 01:30:22;;;;;;;7.15;4.07;;;;;;;-0.18;66.91;98961.69;4973496;28;20082;-91
2023/02/27 01:32:48;;;;;;;8.85;3.88;;;;;;;-0.17;67.07;98960.66;4971958;28;20050;-92
2023/02/27 01:35:13;;;;;;;8.20;3.75;;;;;;;-0.16;67.13;98962.31;4973410;28;20030;-92
2023/02/27 01:37:39;;;;;;;9.88;3.17;;;;;;;-0.12;66.92;98965.38;4973270;28;20454;-92
2023/02/27 01:40:06;;;;;;;9.02;4.13;;;;;;;-0.09;67.22;98969.53;4972713;28;20031;-90
2023/02/27 01:42:31;;;;;;;9.07;3.45;;;;;;;-0.08;67.19;98977.41;4973557;28;20110;-91
2023/02/27 01:45:00;;;;;;;8.48;3.92;;;;;;;-0.07;66.67;98976.38;4986111;28;20111;-95
2023/02/27 01:47:25;;;;;;;7.50;4.03;;;;;;;-0.04;67.18;98981.34;4972967;28;20037;-92
2023/02/27 01:49:50;;;;;;;6.80;3.55;;;;;;;-0.01;67.31;98975.50;4972485;28;20391;-90
2023/02/27 01:52:16;;;;;;;7.05;3.58;;;;;;;0.02;67.20;98982.34;4972894;28;20077;-91
2023/02/27 01:54:42;;;;;;;10.52;4.82;;;;;;;0.06;66.84;98980.06;4973027;28;20484;-90
2023/02/27 01:57:08;;;;;;;7.68;4.82;;;;;;;0.09;66.83;98979.63;4972671;28;20019;-91
2023/02/27 01:59:35;;;;;;;9.75;4.95;;;;;;;0.13;67.16;98991.66;4971280;28;20570;-91
2023/02/27 02:02:10;;;;;;;10.48;4.50;;;;;;;0.14;66.86;98988.72;4972951;28;20019;-91
2023/02/27 02:04:38;;;;;;;12.75;5.90;;;;;;;0.18;66.86;98989.13;4972427;28;20841;-91
2023/02/27 02:07:10;;;;;;;11.23;7.60;;;;;;;0.21;66.60;98987.84;4972322;28;20480;-90
2023/02/27 02:09:40;;;;;;;11.02;5.88;;;;;;;0.22;66.99;98989.50;4971987;28;20106;-90
2023/02/27 02:12:07;;;;;;;9.50;5.00;;;;;;;0.25;66.67;98992.59;4972173;28;20076;-90
2023/02/27 02:14:32;;;;;;;8.82;4.43;;;;;;;0.29;66.54;98995.72;4972252;28;20037;-92
2023/02/27 02:17:03;;;;;;;8.15;4.20;;;;;;;0.29;67.07;98993.81;4971720;28;20035;-91
2023/02/27 02:19:53;;;;;;;7.97;4.00;;;;;;;0.31;66.45;98993.63;4971421;28;20026;-91
2023/02/27 02:22:55;;;;;;;8.52;3.60;;;;;;;0.33;66.72;98996.94;4970323;28;20050;-90
2023/02/27 02:25:29;;;;;;;7.07;3.20;;;;;;;0.36;66.34;99006.47;4971584;28;20042;-91
2023/02/27 02:28:18;;;;;;;8.48;4.22;;;;;;;0.36;66.69;99012.69;4971542;28;20026;-91
2023/02/27 02:30:52;;;;;;;7.63;3.80;;;;;;;0.39;66.71;99008.72;4970788;28;20495;-93
2023/02/27 02:33:29;;;;;;;7.95;3.45;;;;;;;0.40;66.29;99016.63;4971946;28;20023;-92
2023/02/27 02:36:39;;;;;;;9.23;3.55;;;;;;;0.42;66.75;99024.50;4971237;28;20153;-92
2023/02/27 02:39:26;;;;;;;7.82;3.50;;;;;;;0.41;66.16;99025.53;4977649;28;20061;-91
2023/02/27 02:42:17;;;;;;;7.82;3.60;;;;;;;0.40;66.53;99027.41;4984716;28;20038;-91
2023/02/27 02:44:45;;;;;;;8.73;3.72;;;;;;;0.39;66.38;99025.75;4974145;28;20074;-90
2023/02/27 02:47:26;;;;;;;8.27;3.33;;;;;;;0.38;67.00;99037.59;4971466;28;20074;-92
2023/02/27 02:49:55;;;;;;;;;;;;;;;0.40;66.26;99026.56;4971737;28;20039;-91
2023/02/27 02:52:45;;;;;;;8.95;3.60;;;;;;;0.38;66.47;99031.34;4971493;28;20406;-91
2023/02/27 02:55:29;;;;;;;10.60;4.10;;;;;;;0.37;66.10;99025.16;4986441;28;20182;-90
2023/02/27 02:58:08;;;;;;;7.97;4.25;;;;;;;0.37;66.13;99029.69;4970841;28;20105;-92
2023/02/27 03:00:39;;;;;;;9.10;3.78;;;;;;;0.36;65.97;99028.03;4971145;28;20023;-92
2023/02/27 03:03:21;;;;;;;8.55;3.50;;;;;;;0.33;66.40;99023.06;4973820;28;20042;-91
2023/02/27 03:05:53;;;;;;;9.68;4.60;;;;;;;0.35;66.05;99031.78;4971608;28;20077;-91
2023/02/27 03:08:27;;;;;;;14.80;6.85;;;;;;;0.34;65.64;99030.13;4971330;28;20476;-92
2023/02/27 03:11:02;;;;;;;18.35;6.80;;;;;;;0.34;65.74;99028.28;4970965;28;20471;-89
2023/02/27 03:13:36;;;;;;;20.75;7.78;;;;;;;0.36;65.85;99028.03;4971353;28;20494;-93
2023/02/27 03:16:21;;;;;;;20.58;7.53;;;;;;;0.34;66.04;99024.72;4970806;28;20027;-90
2023/02/27 03:18:55;;;;;;;19.10;7.32;;;;;;;0.35;66.05;99024.53;4971752;28;20034;-89
2023/02/27 03:21:28;;;;;;;18.33;6.78;;;;;;;0.37;65.41;99024.31;4971196;28;20117;-80
2023/02/27 03:23:56;;;;;;;18.42;5.78;;;;;;;0.35;65.50;99032.63;4970959;28;20027;-80
2023/02/27 03:26:32;;;;;;;10.43;4.22;;;;;;;0.33;65.14;99034.72;4970493;28;20153;-88
2023/02/27 03:29:01;;;;;;;9.10;3.45;;;;;;;0.29;65.23;99031.59;4970436;28;20105;-83
2023/02/27 03:31:45;;;;;;;6.43;2.70;;;;;;;0.26;65.46;99031.22;4970865;28;20022;-88
2023/02/27 03:34:24;;;;;;;5.70;2.90;;;;;;;0.27;65.51;99030.16;4969547;28;20435;-88
2023/02/27 03:37:21;;;;;;;5.30;2.38;;;;;;;0.22;65.62;99028.09;4970634;28;20317;-89
2023/02/27 03:39:52;;;;;;;4.53;2.42;;;;;;;0.21;64.77;99031.84;4970595;28;20030;-89
2023/02/27 03:42:23;;;;;;;7.18;2.72;;;;;;;0.19;64.63;99039.34;4970500;28;20073;-89
2023/02/27 03:45:13;;;;;;;4.82;2.38;;;;;;;0.18;65.13;99042.25;4970773;28;20043;-88
2023/02/27 03:47:39;;;;;;;5.13;2.40;;;;;;;0.16;65.16;99038.94;4970856;28;20034;-88
2023/02/27 03:50:05;;;;;;;5.35;2.97;;;;;;;0.14;64.61;99028.38;4970844;28;20026;-88
2023/02/27 03:52:31;;;;;;;6.13;2.58;;;;;;;0.13;64.75;99035.63;4969594;28;20029;-88
2023/02/27 03:55:07;;;;;;;5.07;3.20;;;;;;;0.11;64.81;99043.09;4970905;28;20057;-88
2023/02/27 03:57:33;;;;;;;6.45;3.20;;;;;;;0.12;64.98;99049.31;4970295;28;20093;-89
2023/02/27 03:59:59;;;;;;;6.50;3.00;;;;;;;0.13;64.55;99046.41;4970500;28;20033;-88
2023/02/27 04:02:26;;;;;;;5.13;2.60;;;;;;;0.14;64.80;99050.75;4970808;28;20121;-88
2023/02/27 04:04:52;;;;;;;4.63;2.78;;;;;;;0.13;64.66;99045.59;4970653;28;20027;-88
2023/02/27 04:07:26;;;;;;;6.60;3.25;;;;;;;0.12;64.03;99047.44;4970337;28;20034;-88
2023/02/27 04:10:31;;;;;;;6.00;2.92;;;;;;;0.10;64.39;99052.22;4970448;28;20515;-88
2023/02/27 04:13:34;;;;;;;6.82;2.60;;;;;;;0.08;64.51;99053.50;4972901;28;20460;-88
2023/02/27 04:16:26;;;;;;;7.15;3.80;;;;;;;0.08;64.25;99059.69;4970512;28;20035;-88
2023/02/27 04:19:45;;;;;;;7.97;3.72;;;;;;;0.06;64.46;99064.47;4970564;28;20141;-88
2023/02/27 04:22:38;;;;;;;6.90;3.00;;;;;;;0.07;64.06;99058.03;4986423;28;20031;-87
2023/02/27 04:25:26;;;;;;;6.03;2.70;;;;;;;0.06;63.98;99063.66;4969144;28;20045;-88
2023/02/27 04:28:04;;;;;;;4.72;2.63;;;;;;;0.06;64.40;99077.16;4970130;28;20112;-86
2023/02/27 04:30:50;;;;;;;3.90;2.20;;;;;;;0.06;64.36;99071.75;4971749;28;20110;-87
2023/02/27 04:33:36;;;;;;;4.60;2.22;;;;;;;0.03;64.42;99070.28;4970134;28;20104;-88
2023/02/27 04:36:10;;;;;;;5.47;2.50;;;;;;;0.02;64.51;99074.03;4969684;28;20495;-88
2023/02/27 04:38:43;;;;;;;5.40;2.40;;;;;;;0.03;64.78;99085.66;4968516;28;20027;-87
2023/02/27 04:41:15;;;;;;;5.20;2.58;;;;;;;0.05;64.89;99089.78;4971276;28;20039;-87
2023/02/27 04:43:43;;;;;;;3.58;2.10;;;;;;;0.08;64.29;99088.56;4969785;28;20169;-87
2023/02/27 04:46:12;;;;;;;5.45;2.17;;;;;;;0.08;64.38;99096.66;4971469;28;20062;-87
2023/02/27 04:48:49;;;;;;;5.20;2.58;;;;;;;0.05;64.52;99081.69;4973417;28;20497;-88
2023/02/27 04:51:18;;;;;;;5.72;2.45;;;;;;;0.05;64.27;99097.06;4973703;28;20161;-87
2023/02/27 04:53:59;;;;;;;3.75;2.40;;;;;;;0.04;64.45;99098.09;4973519;28;20049;-88
2023/02/27 04:56:34;;;;;;;5.75;2.33;;;;;;;0.04;64.40;99092.72;4973270;28;20035;-88
2023/02/27 04:59:15;;;;;;;5.05;2.63;;;;;;;0.02;64.10;99092.91;4972819;28;20058;-88
2023/02/27 05:01:48;;;;;;;5.07;2.30;;;;;;;0.01;64.32;99090.44;4973342;28;20031;-88
2023/02/27 05:04:17;;;;;;;8.98;3.00;;;;;;;-0.01;64.54;99091.47;4973417;28;20030;-87
2023/02/27 05:06:46;;;;;;;6.43;2.70;;;;;;;-0.04;64.42;99091.91;4973402;28;20431;-88
2023/02/27 05:09:24;;;;;;;6.18;2.72;;;;;;;-0.04;64.61;99099.97;4970977;28;20034;-88
2023/02/27 05:11:57;;;;;;;6.60;2.50;;;;;;;-0.05;64.36;99100.22;4973120;28;20034;-87
2023/02/27 05:14:29;;;;;;;7.82;3.03;;;;;;;-0.05;64.79;99103.72;4973279;28;20468;-88
2023/02/27 05:17:10;;;;;;;4.53;2.53;;;;;;;-0.05;64.63;99098.31;4972678;28;20102;-88
2023/02/27 05:19:41;;;;;;;5.18;2.20;;;;;;;-0.02;64.57;99095.22;4986893;28;20031;-87
2023/02/27 05:22:19;;;;;;;5.32;2.63;;;;;;;0.00;64.86;99108.50;4973352;28;20057;-88
2023/02/27 05:24:55;;;;;;;6.03;3.70;;;;;;;0.02;64.54;99108.28;4970181;28;20081;-87
2023/02/27 05:27:30;;;;;;;5.93;3.30;;;;;;;0.04;65.04;99108.91;4972337;28;20479;-88
2023/02/27 05:30:00;;;;;;;6.30;2.97;;;;;;;0.04;64.89;99109.72;4971770;28;20034;-89
2023/02/27 05:32:44;;;;;;;6.70;3.13;;;;;;;0.05;65.21;99110.56;4972024;28;20435;-88
2023/02/27 05:35:18;;;;;;;4.35;2.30;;;;;;;0.01;64.78;99115.53;4972437;28;20043;-89
2023/02/27 05:38:05;;;;;;;6.53;2.70;;;;;;;0.03;65.16;99109.94;4971117;28;20109;-88
2023/02/27 05:40:36;;;;;;;6.15;3.03;;;;;;;0.05;64.75;99114.06;4972267;28;20400;-88
2023/02/27 05:43:26;;;;;;;8.27;4.30;;;;;;;0.05;64.91;99118.63;4972186;28;20497;-89
2023/02/27 05:45:58;;;;;;;7.00;3.22;;;;;;;0.06;64.83;99114.91;4971969;28;20030;-89
2023/02/27 05:48:29;;;;;;;8.07;3.03;;;;;;;0.06;64.70;99128.38;4971853;28;20476;-89
2023/02/27 05:50:55;;;;;;;8.30;3.22;;;;;;;0.05;64.85;99127.53;4971842;28;20026;-89
2023/02/27 05:53:23;;;;;;;5.90;2.97;;;;;;;0.06;64.96;99131.09;4971916;28;20057;-88
2023/02/27 05:55:50;;;;;;;8.98;3.60;;;;;;;0.08;65.45;99129.00;4972465;28;20415;-89
2023/02/27 05:58:35;;;;;;;7.03;3.38;;;;;;;0.09;65.26;99136.06;4970574;28;20051;-88
2023/02/27 06:01:03;;;;;;;7.28;3.78;;;;;;;0.14;64.99;99137.06;4971736;28;20542;-86
2023/02/27 06:03:32;;;;;;;8.38;4.35;;;;;;;0.19;65.24;99146.41;4971361;28;20027;-86
2023/02/27 06:06:00;;;;;;;11.98;5.80;;;;;;;0.21;65.24;99152.41;4971476;28;20085;-86
2023/02/27 06:08:27;;;;;;;14.05;5.57;;;;;;;0.24;65.14;99152.00;4971382;28;20034;-85
2023/02/27 06:10:54;;;;;;;9.85;4.65;;;;;;;0.26;65.17;99155.31;4970091;28;20023;-86
2023/02/27 06:13:20;;;;;;;11.55;4.28;;;;;;;0.27;65.42;99152.41;4971212;28;20050;-86
2023/02/27 06:15:47;;;;;;;11.10;4.13;;;;;;;0.29;64.94;99155.72;4971581;28;20033;-86
2023/02/27 06:18:13;;;;;;;12.07;5.93;;;;;;;0.32;64.71;99157.19;4970856;28;20030;-86
2023/02/27 06:20:40;;;;;;;15.50;7.45;;;;;;;0.29;64.95;99152.19;4971115;28;20038;-89
2023/02/27 06:23:05;;;;;;;71.63;25.25;;;;;;;0.31;65.30;99160.91;4971276;28;20034;-88
2023/02/27 06:25:31;;;;;;;87.93;26.25;;;;;;;0.36;65.36;99157.56;4971313;28;20053;-88
2023/02/27 06:27:56;;;;;;;41.30;16.33;;;;;;;0.38;65.33;99155.50;4970224;28;20058;-89
2023/02/27 06:30:22;;;;;;;17.67;6.88;;;;;;;0.41;64.96;99155.88;4971091;28;20114;-89
2023/02/27 06:32:47;;;;;;;15.00;6.45;;;;;;;0.41;64.80;99161.28;4971012;28;20031;-86
2023/02/27 06:35:12;;;;;;;18.90;11.40;;;;;;;0.41;65.01;99165.84;4970841;28;20775;-86
2023/02/27 06:37:38;;;;;;;18.13;10.30;;;;;;;0.41;65.13;99166.69;4971258;28;20042;-85
2023/02/27 06:40:04;;;;;;;12.18;7.97;;;;;;;0.41;64.84;99158.56;4971261;28;20096;-85
2023/02/27 06:42:31;;;;;;;23.13;16.02;;;;;;;0.44;64.70;99168.13;4971087;28;20034;-85
2023/02/27 06:44:56;;;;;;;25.35;12.65;;;;;;;0.47;64.93;99164.16;4969061;28;20038;-86
2023/02/27 06:47:21;;;;;;;21.08;13.15;;;;;;;0.50;64.58;99170.00;4970979;28;20065;-86
2023/02/27 06:49:48;;;;;;;18.70;9.60;;;;;;;0.54;64.88;99175.78;4970747;28;20053;-86
2023/02/27 06:52:14;;;;;;;24.40;12.02;;;;;;;0.54;64.91;99176.63;4970111;28;20027;-86
2023/02/27 06:54:39;;;;;;;54.58;30.75;;;;;;;0.59;65.19;99174.13;4970390;28;20088;-87
2023/02/27 06:57:05;;;;;;;34.80;18.63;;;;;;;0.63;64.88;99170.97;4970686;28;20070;-87
2023/02/27 06:59:30;;;;;;;25.52;16.08;;;;;;;0.68;65.04;99176.56;4970960;28;20026;-87
2023/02/27 07:01:57;;;;;;;20.10;10.40;;;;;;;0.70;64.41;99172.63;4970581;28;20491;-84
2023/02/27 07:04:23;;;;;;;16.42;8.48;;;;;;;0.74;64.84;99178.41;4969562;28;20023;-83
2023/02/27 07:06:49;;;;;;;37.92;21.25;;;;;;;0.76;64.45;99172.81;4969913;28;20766;-84
2023/02/27 07:09:14;;;;;;;25.42;12.65;;;;;;;0.81;64.80;99181.91;4970150;28;20110;-84
2023/02/27 07:11:39;;;;;;;24.27;14.82;;;;;;;0.83;64.23;99179.81;4971852;28;20031;-83
2023/02/27 07:14:05;;;;;;;25.08;16.17;;;;;;;0.89;64.78;99178.13;4972491;28;20034;-83
2023/02/27 07:16:30;;;;;;;21.58;13.07;;;;;;;0.94;64.12;99181.00;4972220;28;20427;-85
2023/02/27 07:18:56;;;;;;;22.52;15.02;;;;;;;0.97;64.58;99180.59;4972164;28;20479;-84
2023/02/27 07:21:21;;;;;;;22.65;13.82;;;;;;;1.01;64.39;99181.00;4972166;28;20023;-85
2023/02/27 07:23:47;;;;;;;17.80;12.05;;;;;;;1.04;64.15;99184.09;4970210;28;20508;-79
2023/02/27 07:26:12;;;;;;;14.63;7.45;;;;;;;1.10;64.60;99184.28;4971569;28;20062;-84
2023/02/27 07:28:37;;;;;;;13.30;6.68;;;;;;;1.16;64.18;99189.63;4971389;28;20161;-78
2023/02/27 07:31:03;;;;;;;11.70;6.38;;;;;;;1.24;64.08;99185.03;4972249;28;20393;-79
2023/02/27 07:33:28;;;;;;;11.35;5.68;;;;;;;1.27;64.40;99181.88;4971986;28;20034;-80
2023/02/27 07:35:54;;;;;;;9.55;5.65;;;;;;;1.32;64.23;99185.56;4971409;28;20036;-80
2023/02/27 07:38:22;;;;;;;9.13;4.78;;;;;;;1.37;64.65;99184.94;4973341;28;20027;-80
2023/02/27 07:40:48;;;;;;;11.77;6.00;;;;;;;1.43;63.80;99188.63;4971250;28;20219;-78
2023/02/27 07:43:14;;;;;;;10.05;5.30;;;;;;;1.48;63.84;99196.94;4971466;28;20030;-80
2023/02/27 07:45:39;;;;;;;13.75;6.78;;;;;;;1.50;63.90;99202.94;4971120;28;20053;-82
2023/02/27 07:48:05;;;;;;;13.25;5.93;;;;;;;1.53;63.44;99204.38;4971267;28;20035;-82
2023/02/27 07:50:31;;;;;;;12.25;4.93;;;;;;;1.58;63.85;99199.13;4971243;28;20384;-82
2023/02/27 07:52:56;;;;;;;9.93;4.82;;;;;;;1.61;63.70;99213.06;4971443;28;20031;-83
2023/02/27 07:55:21;;;;;;;16.25;6.45;;;;;;;1.60;62.70;99216.81;4971273;28;20133;-83
2023/02/27 07:57:47;;;;;;;14.02;5.60;;;;;;;1.57;62.92;99216.41;4970046;28;20101;-82
2023/02/27 08:00:13;;;;;;;12.30;5.22;;;;;;;1.56;62.69;99215.59;4971472;28;20034;-83
2023/02/27 08:02:39;;;;;;;12.05;4.93;;;;;;;1.53;63.00;99216.03;4971199;28;20035;-80
2023/02/27 08:05:05;;;;;;;9.68;4.28;;;;;;;1.46;62.98;99224.16;4970897;28;20118;-80
2023/02/27 08:07:30;;;;;;;9.23;4.43;;;;;;;1.48;63.21;99229.38;4970593;28;20031;-82
2023/02/27 08:09:55;;;;;;;10.27;5.47;;;;;;;1.52;63.25;99224.34;4970606;28;20114;-82
2023/02/27 08:12:21;;;;;;;12.27;6.43;;;;;;;1.58;63.36;99228.88;4969656;28;20492;-76
2023/02/27 08:14:47;;;;;;;10.73;4.82;;;;;;;1.63;63.52;99231.75;4970606;28;20037;-78
2023/02/27 08:17:12;;;;;;;7.85;4.70;;;;;;;1.61;63.49;99232.00;4970751;28;20027;-79
2023/02/27 08:19:38;;;;;;;12.18;6.75;;;;;;;1.67;63.20;99242.97;4970166;28;20045;-78
2023/02/27 08:22:04;;;;;;;13.38;6.65;;;;;;;1.71;63.21;99245.03;4973900;28;20023;-78
2023/02/27 08:24:29;;;;;;;11.48;6.85;;;;;;;1.73;63.20;99252.91;4974389;28;20034;-81
2023/02/27 08:26:54;;;;;;;13.15;6.93;;;;;;;1.77;63.86;99252.25;4974173;28;20031;-81
2023/02/27 08:29:20;;;;;;;12.35;6.57;;;;;;;1.83;63.02;99260.56;4974033;28;20460;-78
2023/02/27 08:31:48;;;;;;;13.27;8.13;;;;;;;1.86;63.18;99265.50;4972777;28;20464;-80
2023/02/27 08:34:14;;;;;;;28.98;16.58;;;;;;;1.87;63.65;99257.19;4969620;28;20120;-85
2023/02/27 08:36:39;;;;;;;51.33;24.40;;;;;;;1.93;63.26;99256.31;4970200;28;20102;-85
2023/02/27 08:39:07;;;;;;;20.92;10.40;;;;;;;1.96;64.03;99256.91;4971476;28;20031;-87
2023/02/27 08:41:33;;;;;;;24.52;12.73;;;;;;;2.01;64.01;99263.31;4971396;28;20141;-82
2023/02/27 08:43:58;;;;;;;14.13;7.70;;;;;;;2.05;63.91;99269.94;4969576;28;20038;-80
2023/02/27 08:46:24;;;;;;;52.75;19.77;;;;;;;2.09;64.11;99270.31;4971112;28;20049;-79
2023/02/27 08:48:50;;;;;;;40.60;21.73;;;;;;;2.11;63.88;99270.94;4972277;28;20050;-86
2023/02/27 08:51:16;;;;;;;98.30;46.58;;;;;;;2.17;63.51;99280.06;4971409;28;20050;-82
2023/02/27 08:53:41;;;;;;;17.85;8.98;;;;;;;2.17;63.41;99275.47;4971454;28;20062;-79
2023/02/27 08:56:07;;;;;;;17.45;9.50;;;;;;;2.16;63.37;99284.63;4971039;28;20122;-79
2023/02/27 08:58:34;;;;;;;14.95;8.20;;;;;;;2.12;62.88;99279.91;4971017;28;20491;-78
2023/02/27 09:01:00;;;;;;;30.02;15.10;;;;;;;2.05;63.09;99280.78;4972229;28;20026;-78
2023/02/27 09:03:27;;;;;;;45.70;19.85;;;;;;;2.07;62.93;99285.94;4972232;28;20467;-79
2023/02/27 09:05:53;;;;;;;21.13;10.23;;;;;;;2.05;63.88;99283.47;4971558;28;20472;-76
2023/02/27 09:08:19;;;;;;;19.67;10.07;;;;;;;2.07;62.70;99288.66;4971601;28;20031;-78
2023/02/27 09:10:45;;;;;;;19.17;9.48;;;;;;;2.11;63.04;99283.66;4970646;28;20040;-77
2023/02/27 09:13:10;;;;;;;22.60;11.27;;;;;;;2.12;62.99;99290.72;4973001;28;20041;-77
2023/02/27 09:15:36;;;;;;;28.83;13.43;;;;;;;2.11;62.37;99289.88;4972333;28;20523;-78
2023/02/27 09:18:05;;;;;;;19.20;9.20;;;;;;;2.12;63.35;99293.41;4971890;28;20480;-75
2023/02/27 09:20:39;;;;;;;23.17;11.57;;;;;;;2.14;63.00;99292.13;4971792;28;20045;-75
2023/02/27 09:23:04;;;;;;;27.60;12.82;;;;;;;2.17;63.24;99290.88;4970713;28;20034;-80
2023/02/27 09:25:30;;;;;;;15.93;8.60;;;;;;;2.27;62.88;99295.78;4971840;28;20045;-79
2023/02/27 09:27:55;;;;;;;16.23;7.40;;;;;;;2.36;62.94;99298.00;4970770;28;20503;-79
2023/02/27 09:30:21;;;;;;;15.93;8.20;;;;;;;2.42;63.08;99299.00;4972152;28;20387;-79
2023/02/27 09:32:47;;;;;;;15.90;7.90;;;;;;;2.53;63.04;99300.16;4970818;28;20395;-80
2023/02/27 09:35:15;;;;;;;12.52;6.68;;;;;;;2.55;63.26;99294.50;4970266;28;20035;-77
2023/02/27 09:37:42;;;;;;;39.67;17.15;;;;;;;2.57;63.69;99290.53;4971355;28;20158;-79
2023/02/27 09:40:30;;;;;;;45.20;18.75;;;;;;;2.59;63.47;99288.44;4970907;28;20081;-79
2023/02/27 09:43:00;;;;;;;15.27;6.88;;;;;;;2.53;62.71;99287.44;4969331;28;20085;-79
2023/02/27 09:45:29;;;;;;;10.40;5.18;;;;;;;2.38;62.71;99295.09;4969563;28;20096;-79
2023/02/27 09:48:22;;;;;;;10.00;5.40;;;;;;;2.23;62.66;99301.66;4969545;28;20026;-79
2023/02/27 09:50:51;;;;;;;7.53;3.70;;;;;;;2.16;62.24;99302.75;4971532;28;20054;-78
2023/02/27 09:53:19;;;;;;;8.20;3.93;;;;;;;2.06;62.35;99304.06;4971892;28;20464;-79
2023/02/27 09:55:45;;;;;;;5.95;2.92;;;;;;;2.03;62.32;99304.50;4971125;28;20891;-77
2023/02/27 09:58:49;;;;;;;6.55;3.50;;;;;;;2.04;62.61;99303.47;4970158;28;20061;-77
2023/02/27 10:01:22;;;;;;;6.32;2.90;;;;;;;2.16;62.38;99300.06;4964805;28;20047;-80
2023/02/27 10:04:25;;;;;;;4.47;2.95;;;;;;;2.27;62.87;99302.03;4971371;28;20039;-78
2023/02/27 10:06:56;;;;;;;6.93;3.40;;;;;;;2.40;62.68;99298.41;4970631;28;20426;-78
2023/02/27 10:09:28;;;;;;;9.23;4.68;;;;;;;2.46;62.35;99294.78;4969669;28;20102;-79
2023/02/27 10:12:17;;;;;;;6.53;2.97;;;;;;;2.57;63.04;99293.25;4969926;28;20028;-83
2023/02/27 10:14:54;;;;;;;17.83;8.75;;;;;;;2.72;62.18;99297.47;4966596;28;20085;-82
2023/02/27 10:17:42;;;;;;;10.32;5.65;;;;;;;2.85;63.12;99281.06;4970316;28;20042;-81
2023/02/27 10:20:16;;;;;;;8.23;4.40;;;;;;;3.00;62.26;99296.97;4969751;28;20069;-82
2023/02/27 10:22:45;;;;;;;20.98;8.30;;;;;;;3.09;61.96;99286.63;4971588;28;20054;-80
2023/02/27 10:25:18;;;;;;;16.05;8.23;;;;;;;3.15;62.91;99285.72;4970350;28;20034;-80
2023/02/27 10:27:47;;;;;;;11.13;6.50;;;;;;;3.26;62.61;99284.16;4969833;28;20034;-80
2023/02/27 10:30:18;;;;;;;11.32;6.90;;;;;;;3.35;62.46;99284.66;4968264;28;20027;-79
2023/02/27 10:32:47;;;;;;;8.57;6.03;;;;;;;3.37;61.89;99294.22;4970311;28;20035;-80
2023/02/27 10:35:35;;;;;;;9.93;6.25;;;;;;;3.35;62.17;99290.91;4967134;28;20035;-78
2023/02/27 10:38:10;;;;;;;18.52;10.18;;;;;;;3.33;62.23;99294.91;4970651;28;20047;-80
2023/02/27 10:40:40;;;;;;;9.90;5.07;;;;;;;3.29;62.28;99297.22;4971374;28;20042;-79
2023/02/27 10:43:06;;;;;;;21.98;9.32;;;;;;;3.24;62.33;99295.22;4969095;28;20030;-78
2023/02/27 10:45:32;;;;;;;29.83;13.30;;;;;;;3.20;61.73;99283.16;4965612;28;20041;-79
2023/02/27 10:48:00;;;;;;;23.52;12.90;;;;;;;3.17;62.01;99283.63;4964561;28;20031;-79
2023/02/27 10:50:35;;;;;;;19.08;11.10;;;;;;;3.12;61.37;99287.03;4969110;28;20049;-78
2023/02/27 10:53:04;;;;;;;21.55;12.63;;;;;;;3.09;62.27;99292.06;4970267;28;20030;-79
2023/02/27 10:55:32;;;;;;;17.00;10.50;;;;;;;3.04;62.56;99286.50;4969689;28;20039;-79
2023/02/27 10:57:59;;;;;;;16.38;9.15;;;;;;;3.03;62.41;99284.84;4967991;28;20496;-79
2023/02/27 11:00:32;;;;;;;15.95;8.40;;;;;;;3.03;62.16;99285.66;4968230;28;20041;-82
2023/02/27 11:02:58;;;;;;;13.75;7.20;;;;;;;3.06;62.13;99292.50;4969405;28;20033;-78
2023/02/27 11:05:30;;;;;;;12.38;7.80;;;;;;;3.05;62.25;99288.97;4968249;28;20037;-78
2023/02/27 11:08:30;;;;;;;11.13;7.25;;;;;;;3.05;61.46;99288.16;4969475;28;20023;-77
2023/02/27 11:10:59;;;;;;;14.27;7.05;;;;;;;3.03;61.61;99279.44;4969300;28;20046;-75
2023/02/27 11:13:27;;;;;;;13.55;6.85;;;;;;;2.97;61.55;99283.84;4969290;28;20488;-77
2023/02/27 11:16:09;;;;;;;16.73;7.90;;;;;;;2.90;60.99;99283.09;4969788;28;20038;-77
2023/02/27 11:18:40;;;;;;;8.30;5.05;;;;;;;2.72;60.33;99298.31;4968738;28;20027;-78
2023/02/27 11:21:18;;;;;;;12.63;6.45;;;;;;;2.53;59.69;99300.16;4983624;28;20547;-80
2023/02/27 11:24:16;;;;;;;7.75;4.60;;;;;;;2.32;60.27;99294.06;4970544;28;20395;-78
2023/02/27 11:26:55;;;;;;;6.30;3.70;;;;;;;2.20;59.90;99293.16;4969193;28;20389;-78
2023/02/27 11:29:20;;;;;;;8.02;3.67;;;;;;;2.13;59.88;99289.66;4968185;28;20030;-85
2023/02/27 11:31:59;;;;;;;4.85;2.88;;;;;;;2.08;59.73;99298.44;4970054;28;20031;-81
2023/02/27 11:34:37;;;;;;;6.85;3.70;;;;;;;2.09;60.67;99300.09;4969056;28;20041;-82
2023/02/27 11:37:06;;;;;;;14.50;7.43;;;;;;;2.15;60.06;99288.38;4969880;28;20455;-81
2023/02/27 11:39:49;;;;;;;8.57;4.03;;;;;;;2.19;60.33;99289.59;4969742;28;20455;-82
2023/02/27 11:42:29;;;;;;;8.25;3.70;;;;;;;2.21;60.74;99292.91;4968669;28;20450;-82
2023/02/27 11:45:31;;;;;;;7.68;4.40;;;;;;;2.29;60.77;99293.69;4969809;28;20071;-82
2023/02/27 11:48:15;;;;;;;15.30;8.18;;;;;;;2.35;59.56;99293.63;4965145;28;20047;-82
2023/02/27 11:50:58;;;;;;;24.13;11.85;;;;;;;2.42;60.21;99290.88;4967155;28;20170;-80
2023/02/27 11:53:42;;;;;;;15.13;7.18;;;;;;;2.46;59.58;99293.97;4968326;28;20034;-79